San Antonio International Airport
KSAT : now visible

Airfield :











YOU CAN JOIN US ON...

 
LOGIN :

Register | Disclaimer

   EN    FR    IT 

 









Legend :    VFR   Marginal VFR   IFR   Intensive IFR   Very Intensive IFR
Visi :
Ceiling :
>= 8 km
>= 3000ft
5 to 8 km
1000 to 3000 ft
1500m to 5 km
500 to 1000 ft
800 to 1500m
200 to 500 ft
< 800m
< 200 ft
Symbols :   Thunderstorms  Fog  Heavy snow  Heavy precipitations  Wind > 20 kt






- Airport Elevation : 809 ft
- IATA code : SAT


KSAT - San Antonio International

CURRENT METAR :
  • 191551Z 02009KT 7SM OVC008 10/08 A3026 RMK AO2 RAE27 SLP236 P0000 T01000078

EXPIRED METARs :
  • 191519Z 03009KT 10SM -RA OVC009 10/08 A3024 RMK AO2 P0000 T01000078
  • 191451Z 04011G16KT 10SM -RA OVC011 09/07 A3024 RMK AO2 SLP229 P0000 60001 T00940072 53016
  • 191351Z 01008KT 10SM -RA OVC012 09/07 A3022 RMK AO2 SLP223 P0000 T00940067

TAF KSAT
Valid from the 19 at 12:00 until the 20 at 18:00 UTC


191140Z 1912/2018 01012KT P6SM -RA OVC012
FM191500 01012KT 5SM -RA BR OVC007
FM200100 02009KT 2SM -RA BR OVC004
FM201000 02010KT 5SM -RA BR OVC006
FM201500 02015KT P6SM OVC012



MET'MAP, your aeronautical weather chart ! - Copyright ORBIFLY December 2007 - Disclaimer

ORBIFLY MET'MAP TEAM :

Programming & Development : Alexandra Zaïnal
Concept & original design : Baudouin d'Aumeries
Assistance for programming : Marc-Olivier Méhu
Technical & hardware support : Manuel Goepfert

Contact : metmap@orbifly.com




SOURCES & CREDITS :

   NOAA       Earth
Advisory